sensor_id;sensor_type;location;lat;lon;timestamp;P1;durP1;ratioP1;P2;durP2;ratioP2
49590;SDS011;35496;-21.974;-46.800;2024-03-07T00:00:12;2.25;;;1.75;;
49590;SDS011;35496;-21.974;-46.800;2024-03-07T00:02:50;2.75;;;1.42;;
49590;SDS011;35496;-21.974;-46.800;2024-03-07T00:05:18;2.72;;;2.22;;
49590;SDS011;35496;-21.974;-46.800;2024-03-07T00:07:45;2.70;;;2.03;;
49590;SDS011;35496;-21.974;-46.800;2024-03-07T00:10:12;2.45;;;2.33;;
49590;SDS011;35496;-21.974;-46.800;2024-03-07T00:12:40;2.45;;;2.10;;
49590;SDS011;35496;-21.974;-46.800;2024-03-07T00:15:07;2.58;;;2.00;;
49590;SDS011;35496;-21.974;-46.800;2024-03-07T00:17:36;2.10;;;1.90;;
49590;SDS011;35496;-21.974;-46.800;2024-03-07T00:20:06;2.55;;;2.20;;
49590;SDS011;35496;-21.974;-46.800;2024-03-07T00:22:51;2.13;;;1.70;;
49590;SDS011;35496;-21.974;-46.800;2024-03-07T00:25:17;2.63;;;1.98;;
49590;SDS011;35496;-21.974;-46.800;2024-03-07T00:27:45;2.30;;;2.10;;
49590;SDS011;35496;-21.974;-46.800;2024-03-07T00:30:11;3.85;;;2.13;;
49590;SDS011;35496;-21.974;-46.800;2024-03-07T00:32:44;2.95;;;1.80;;
49590;SDS011;35496;-21.974;-46.800;2024-03-07T00:35:11;1.65;;;1.55;;
49590;SDS011;35496;-21.974;-46.800;2024-03-07T00:37:37;2.10;;;1.90;;
49590;SDS011;35496;-21.974;-46.800;2024-03-07T00:40:04;2.10;;;2.00;;
49590;SDS011;35496;-21.974;-46.800;2024-03-07T00:42:31;3.13;;;1.98;;
49590;SDS011;35496;-21.974;-46.800;2024-03-07T00:44:58;4.22;;;2.13;;
49590;SDS011;35496;-21.974;-46.800;2024-03-07T00:47:24;5.32;;;2.20;;
49590;SDS011;35496;-21.974;-46.800;2024-03-07T00:49:51;4.50;;;1.83;;
49590;SDS011;35496;-21.974;-46.800;2024-03-07T00:52:17;4.43;;;2.00;;
49590;SDS011;35496;-21.974;-46.800;2024-03-07T00:54:44;2.92;;;2.47;;
49590;SDS011;35496;-21.974;-46.800;2024-03-07T00:57:10;3.92;;;2.30;;
49590;SDS011;35496;-21.974;-46.800;2024-03-07T00:59:37;3.60;;;2.15;;
49590;SDS011;35496;-21.974;-46.800;2024-03-07T01:02:03;3.78;;;2.15;;
49590;SDS011;35496;-21.974;-46.800;2024-03-07T01:04:30;2.88;;;1.65;;
49590;SDS011;35496;-21.974;-46.800;2024-03-07T01:06:59;5.28;;;1.92;;
49590;SDS011;35496;-21.974;-46.800;2024-03-07T01:09:26;3.80;;;2.08;;
49590;SDS011;35496;-21.974;-46.800;2024-03-07T01:11:54;1.95;;;1.63;;
49590;SDS011;35496;-21.974;-46.800;2024-03-07T01:14:21;3.95;;;2.40;;
49590;SDS011;35496;-21.974;-46.800;2024-03-07T01:16:48;3.92;;;1.90;;
49590;SDS011;35496;-21.974;-46.800;2024-03-07T01:19:14;3.88;;;1.75;;
49590;SDS011;35496;-21.974;-46.800;2024-03-07T01:21:41;8.80;;;2.67;;
49590;SDS011;35496;-21.974;-46.800;2024-03-07T01:24:07;2.83;;;1.55;;
49590;SDS011;35496;-21.974;-46.800;2024-03-07T01:26:34;2.70;;;1.50;;
49590;SDS011;35496;-21.974;-46.800;2024-03-07T01:29:01;3.42;;;1.38;;
49590;SDS011;35496;-21.974;-46.800;2024-03-07T01:31:27;2.95;;;1.65;;
49590;SDS011;35496;-21.974;-46.800;2024-03-07T01:33:54;1.67;;;1.50;;
49590;SDS011;35496;-21.974;-46.800;2024-03-07T01:36:21;1.95;;;1.20;;
49590;SDS011;35496;-21.974;-46.800;2024-03-07T01:38:48;3.92;;;1.23;;
49590;SDS011;35496;-21.974;-46.800;2024-03-07T01:41:14;2.15;;;1.90;;
49590;SDS011;35496;-21.974;-46.800;2024-03-07T01:43:41;2.83;;;1.30;;
49590;SDS011;35496;-21.974;-46.800;2024-03-07T01:46:08;3.80;;;1.60;;
49590;SDS011;35496;-21.974;-46.800;2024-03-07T01:48:35;2.05;;;1.65;;
49590;SDS011;35496;-21.974;-46.800;2024-03-07T01:51:02;1.98;;;1.80;;
49590;SDS011;35496;-21.974;-46.800;2024-03-07T01:53:30;2.22;;;1.55;;
49590;SDS011;35496;-21.974;-46.800;2024-03-07T01:55:57;6.38;;;2.78;;
49590;SDS011;35496;-21.974;-46.800;2024-03-07T01:58:25;2.33;;;2.22;;
49590;SDS011;35496;-21.974;-46.800;2024-03-07T02:00:52;1.55;;;1.45;;
49590;SDS011;35496;-21.974;-46.800;2024-03-07T02:03:18;2.15;;;1.90;;
49590;SDS011;35496;-21.974;-46.800;2024-03-07T02:05:45;2.60;;;1.63;;
49590;SDS011;35496;-21.974;-46.800;2024-03-07T02:08:11;3.03;;;1.50;;
49590;SDS011;35496;-21.974;-46.800;2024-03-07T02:10:41;2.40;;;1.98;;
49590;SDS011;35496;-21.974;-46.800;2024-03-07T02:13:07;1.52;;;1.27;;
49590;SDS011;35496;-21.974;-46.800;2024-03-07T02:15:34;1.52;;;1.42;;
49590;SDS011;35496;-21.974;-46.800;2024-03-07T02:18:01;13.55;;;3.67;;
49590;SDS011;35496;-21.974;-46.800;2024-03-07T02:20:27;2.65;;;2.22;;
49590;SDS011;35496;-21.974;-46.800;2024-03-07T02:22:54;4.28;;;1.90;;
49590;SDS011;35496;-21.974;-46.800;2024-03-07T02:25:21;2.20;;;1.70;;
49590;SDS011;35496;-21.974;-46.800;2024-03-07T02:27:48;2.42;;;2.22;;
49590;SDS011;35496;-21.974;-46.800;2024-03-07T02:30:14;2.40;;;2.20;;
49590;SDS011;35496;-21.974;-46.800;2024-03-07T02:32:45;3.80;;;1.90;;
49590;SDS011;35496;-21.974;-46.800;2024-03-07T02:35:17;1.77;;;1.67;;
49590;SDS011;35496;-21.974;-46.800;2024-03-07T02:37:44;3.08;;;1.95;;
49590;SDS011;35496;-21.974;-46.800;2024-03-07T02:40:11;2.45;;;1.70;;
49590;SDS011;35496;-21.974;-46.800;2024-03-07T02:42:38;2.38;;;1.80;;
49590;SDS011;35496;-21.974;-46.800;2024-03-07T02:45:05;2.50;;;2.40;;
49590;SDS011;35496;-21.974;-46.800;2024-03-07T02:47:32;3.05;;;2.30;;
49590;SDS011;35496;-21.974;-46.800;2024-03-07T02:49:58;2.40;;;1.90;;
49590;SDS011;35496;-21.974;-46.800;2024-03-07T02:52:25;1.92;;;1.80;;
49590;SDS011;35496;-21.974;-46.800;2024-03-07T02:54:51;1.80;;;1.70;;
49590;SDS011;35496;-21.974;-46.800;2024-03-07T02:57:18;2.15;;;1.95;;
49590;SDS011;35496;-21.974;-46.800;2024-03-07T02:59:45;2.33;;;2.13;;
49590;SDS011;35496;-21.974;-46.800;2024-03-07T03:02:11;2.53;;;1.67;;
49590;SDS011;35496;-21.974;-46.800;2024-03-07T03:04:38;2.00;;;1.90;;
49590;SDS011;35496;-21.974;-46.800;2024-03-07T03:07:04;3.42;;;1.58;;
49590;SDS011;35496;-21.974;-46.800;2024-03-07T03:09:32;4.07;;;2.60;;
49590;SDS011;35496;-21.974;-46.800;2024-03-07T03:11:59;6.97;;;1.80;;
49590;SDS011;35496;-21.974;-46.800;2024-03-07T03:14:25;2.25;;;2.03;;
49590;SDS011;35496;-21.974;-46.800;2024-03-07T03:16:52;3.95;;;1.85;;
49590;SDS011;35496;-21.974;-46.800;2024-03-07T03:19:18;1.75;;;1.52;;
49590;SDS011;35496;-21.974;-46.800;2024-03-07T03:21:45;2.08;;;1.88;;
49590;SDS011;35496;-21.974;-46.800;2024-03-07T03:24:12;4.93;;;2.10;;
49590;SDS011;35496;-21.974;-46.800;2024-03-07T03:26:38;1.80;;;1.60;;
49590;SDS011;35496;-21.974;-46.800;2024-03-07T03:29:05;2.58;;;1.73;;
49590;SDS011;35496;-21.974;-46.800;2024-03-07T03:31:33;8.57;;;2.20;;
49590;SDS011;35496;-21.974;-46.800;2024-03-07T03:34:00;2.33;;;2.15;;
49590;SDS011;35496;-21.974;-46.800;2024-03-07T03:36:27;4.15;;;2.05;;
49590;SDS011;35496;-21.974;-46.800;2024-03-07T03:38:55;3.15;;;1.98;;
49590;SDS011;35496;-21.974;-46.800;2024-03-07T03:41:22;7.80;;;4.10;;
49590;SDS011;35496;-21.974;-46.800;2024-03-07T03:43:48;6.82;;;4.05;;
49590;SDS011;35496;-21.974;-46.800;2024-03-07T03:46:15;10.60;;;4.13;;
49590;SDS011;35496;-21.974;-46.800;2024-03-07T03:48:42;7.22;;;4.43;;
49590;SDS011;35496;-21.974;-46.800;2024-03-07T03:51:08;5.40;;;2.83;;
49590;SDS011;35496;-21.974;-46.800;2024-03-07T03:53:36;9.73;;;3.83;;
49590;SDS011;35496;-21.974;-46.800;2024-03-07T03:56:02;3.30;;;2.42;;
49590;SDS011;35496;-21.974;-46.800;2024-03-07T03:58:32;2.50;;;2.30;;
49590;SDS011;35496;-21.974;-46.800;2024-03-07T04:01:00;4.00;;;2.50;;
49590;SDS011;35496;-21.974;-46.800;2024-03-07T04:03:26;2.35;;;2.15;;
49590;SDS011;35496;-21.974;-46.800;2024-03-07T04:05:53;9.10;;;3.85;;
49590;SDS011;35496;-21.974;-46.800;2024-03-07T04:08:20;9.80;;;2.88;;
49590;SDS011;35496;-21.974;-46.800;2024-03-07T04:10:47;2.83;;;2.63;;
49590;SDS011;35496;-21.974;-46.800;2024-03-07T04:13:13;5.93;;;2.67;;
49590;SDS011;35496;-21.974;-46.800;2024-03-07T04:15:40;3.05;;;2.85;;
49590;SDS011;35496;-21.974;-46.800;2024-03-07T04:18:06;3.67;;;3.47;;
49590;SDS011;35496;-21.974;-46.800;2024-03-07T04:20:33;5.13;;;3.42;;
49590;SDS011;35496;-21.974;-46.800;2024-03-07T04:22:59;8.77;;;3.72;;
49590;SDS011;35496;-21.974;-46.800;2024-03-07T04:25:27;4.72;;;2.83;;
49590;SDS011;35496;-21.974;-46.800;2024-03-07T04:27:54;3.15;;;2.95;;
49590;SDS011;35496;-21.974;-46.800;2024-03-07T04:30:20;8.77;;;3.00;;
49590;SDS011;35496;-21.974;-46.800;2024-03-07T04:32:47;7.25;;;3.35;;
49590;SDS011;35496;-21.974;-46.800;2024-03-07T04:35:14;5.18;;;2.95;;
49590;SDS011;35496;-21.974;-46.800;2024-03-07T04:37:41;3.47;;;3.05;;
49590;SDS011;35496;-21.974;-46.800;2024-03-07T04:40:08;6.07;;;3.75;;
49590;SDS011;35496;-21.974;-46.800;2024-03-07T04:42:44;22.08;;;11.32;;
49590;SDS011;35496;-21.974;-46.800;2024-03-07T04:45:13;32.65;;;15.15;;
49590;SDS011;35496;-21.974;-46.800;2024-03-07T04:47:40;46.20;;;12.07;;
49590;SDS011;35496;-21.974;-46.800;2024-03-07T04:50:07;29.27;;;13.10;;
49590;SDS011;35496;-21.974;-46.800;2024-03-07T04:52:38;20.65;;;9.10;;
49590;SDS011;35496;-21.974;-46.800;2024-03-07T04:55:09;20.55;;;9.60;;
49590;SDS011;35496;-21.974;-46.800;2024-03-07T04:57:39;17.63;;;7.78;;
49590;SDS011;35496;-21.974;-46.800;2024-03-07T05:05:05;7.28;;;4.10;;
49590;SDS011;35496;-21.974;-46.800;2024-03-07T05:07:31;5.28;;;3.42;;
49590;SDS011;35496;-21.974;-46.800;2024-03-07T05:09:58;5.43;;;2.88;;
49590;SDS011;35496;-21.974;-46.800;2024-03-07T05:12:24;6.63;;;3.13;;
49590;SDS011;35496;-21.974;-46.800;2024-03-07T05:14:51;2.78;;;2.58;;
49590;SDS011;35496;-21.974;-46.800;2024-03-07T05:17:19;2.47;;;2.28;;
49590;SDS011;35496;-21.974;-46.800;2024-03-07T05:19:47;4.60;;;3.20;;
49590;SDS011;35496;-21.974;-46.800;2024-03-07T05:22:15;3.65;;;3.20;;
49590;SDS011;35496;-21.974;-46.800;2024-03-07T05:24:43;3.95;;;2.90;;
49590;SDS011;35496;-21.974;-46.800;2024-03-07T05:27:10;3.47;;;2.45;;
49590;SDS011;35496;-21.974;-46.800;2024-03-07T05:29:37;4.35;;;3.00;;
49590;SDS011;35496;-21.974;-46.800;2024-03-07T05:32:23;7.18;;;3.78;;
49590;SDS011;35496;-21.974;-46.800;2024-03-07T05:34:53;5.10;;;3.35;;
49590;SDS011;35496;-21.974;-46.800;2024-03-07T05:37:20;6.95;;;3.10;;
49590;SDS011;35496;-21.974;-46.800;2024-03-07T05:39:48;10.68;;;5.40;;
49590;SDS011;35496;-21.974;-46.800;2024-03-07T05:42:14;9.85;;;3.30;;
49590;SDS011;35496;-21.974;-46.800;2024-03-07T05:44:41;5.05;;;3.80;;
49590;SDS011;35496;-21.974;-46.800;2024-03-07T05:47:08;5.05;;;4.10;;
49590;SDS011;35496;-21.974;-46.800;2024-03-07T05:49:35;3.10;;;2.83;;
49590;SDS011;35496;-21.974;-46.800;2024-03-07T05:52:04;3.50;;;3.20;;
49590;SDS011;35496;-21.974;-46.800;2024-03-07T05:54:31;2.90;;;2.65;;
49590;SDS011;35496;-21.974;-46.800;2024-03-07T05:56:58;3.40;;;3.10;;
49590;SDS011;35496;-21.974;-46.800;2024-03-07T05:59:28;5.90;;;3.08;;
49590;SDS011;35496;-21.974;-46.800;2024-03-07T06:01:54;8.68;;;2.80;;
49590;SDS011;35496;-21.974;-46.800;2024-03-07T06:04:21;5.22;;;2.50;;
49590;SDS011;35496;-21.974;-46.800;2024-03-07T06:06:47;4.47;;;2.50;;
49590;SDS011;35496;-21.974;-46.800;2024-03-07T06:09:14;1.80;;;1.70;;
49590;SDS011;35496;-21.974;-46.800;2024-03-07T06:11:47;2.97;;;1.95;;
49590;SDS011;35496;-21.974;-46.800;2024-03-07T06:14:13;2.65;;;2.00;;
49590;SDS011;35496;-21.974;-46.800;2024-03-07T06:16:41;8.07;;;2.30;;
49590;SDS011;35496;-21.974;-46.800;2024-03-07T06:19:08;4.07;;;2.30;;
49590;SDS011;35496;-21.974;-46.800;2024-03-07T06:21:36;2.78;;;2.10;;
49590;SDS011;35496;-21.974;-46.800;2024-03-07T06:26:34;2.58;;;1.70;;
49590;SDS011;35496;-21.974;-46.800;2024-03-07T06:29:25;3.22;;;2.47;;
49590;SDS011;35496;-21.974;-46.800;2024-03-07T06:31:53;2.03;;;1.90;;
49590;SDS011;35496;-21.974;-46.800;2024-03-07T06:34:20;7.78;;;3.05;;
49590;SDS011;35496;-21.974;-46.800;2024-03-07T06:36:46;10.38;;;2.45;;
49590;SDS011;35496;-21.974;-46.800;2024-03-07T06:39:13;3.03;;;2.08;;
49590;SDS011;35496;-21.974;-46.800;2024-03-07T06:41:39;2.70;;;1.65;;
49590;SDS011;35496;-21.974;-46.800;2024-03-07T06:44:06;2.33;;;2.13;;
49590;SDS011;35496;-21.974;-46.800;2024-03-07T06:46:35;3.72;;;1.77;;
49590;SDS011;35496;-21.974;-46.800;2024-03-07T06:49:01;2.30;;;1.98;;
49590;SDS011;35496;-21.974;-46.800;2024-03-07T06:51:28;2.22;;;1.80;;
49590;SDS011;35496;-21.974;-46.800;2024-03-07T06:53:54;2.97;;;2.33;;
49590;SDS011;35496;-21.974;-46.800;2024-03-07T06:56:21;2.45;;;1.70;;
49590;SDS011;35496;-21.974;-46.800;2024-03-07T06:58:49;3.92;;;2.60;;
49590;SDS011;35496;-21.974;-46.800;2024-03-07T07:01:16;2.92;;;2.72;;
49590;SDS011;35496;-21.974;-46.800;2024-03-07T07:03:43;1.98;;;1.75;;
49590;SDS011;35496;-21.974;-46.800;2024-03-07T07:06:11;1.98;;;1.88;;
49590;SDS011;35496;-21.974;-46.800;2024-03-07T07:08:37;3.45;;;2.80;;
49590;SDS011;35496;-21.974;-46.800;2024-03-07T07:11:04;3.53;;;2.78;;
49590;SDS011;35496;-21.974;-46.800;2024-03-07T07:13:31;6.78;;;3.83;;
49590;SDS011;35496;-21.974;-46.800;2024-03-07T07:16:17;3.28;;;2.38;;
49590;SDS011;35496;-21.974;-46.800;2024-03-07T07:18:45;2.65;;;2.40;;
49590;SDS011;35496;-21.974;-46.800;2024-03-07T07:21:11;3.78;;;3.08;;
49590;SDS011;35496;-21.974;-46.800;2024-03-07T07:23:41;3.28;;;2.63;;
49590;SDS011;35496;-21.974;-46.800;2024-03-07T07:26:08;4.57;;;2.42;;
49590;SDS011;35496;-21.974;-46.800;2024-03-07T07:28:34;3.30;;;2.70;;
49590;SDS011;35496;-21.974;-46.800;2024-03-07T07:31:02;2.67;;;2.45;;
49590;SDS011;35496;-21.974;-46.800;2024-03-07T07:33:29;3.10;;;2.67;;
49590;SDS011;35496;-21.974;-46.800;2024-03-07T07:35:56;4.90;;;3.10;;
49590;SDS011;35496;-21.974;-46.800;2024-03-07T07:38:23;2.83;;;2.55;;
49590;SDS011;35496;-21.974;-46.800;2024-03-07T07:40:49;5.30;;;2.63;;
49590;SDS011;35496;-21.974;-46.800;2024-03-07T07:43:16;3.33;;;2.72;;
49590;SDS011;35496;-21.974;-46.800;2024-03-07T07:45:44;4.75;;;3.03;;
49590;SDS011;35496;-21.974;-46.800;2024-03-07T07:48:11;2.65;;;2.42;;
49590;SDS011;35496;-21.974;-46.800;2024-03-07T07:50:37;7.95;;;2.60;;
49590;SDS011;35496;-21.974;-46.800;2024-03-07T07:53:04;6.32;;;2.58;;
49590;SDS011;35496;-21.974;-46.800;2024-03-07T07:55:34;3.92;;;2.50;;
49590;SDS011;35496;-21.974;-46.800;2024-03-07T07:58:01;10.65;;;2.63;;
49590;SDS011;35496;-21.974;-46.800;2024-03-07T08:00:30;2.97;;;2.75;;
49590;SDS011;35496;-21.974;-46.800;2024-03-07T08:02:58;8.68;;;2.72;;
49590;SDS011;35496;-21.974;-46.800;2024-03-07T08:05:27;6.28;;;3.80;;
49590;SDS011;35496;-21.974;-46.800;2024-03-07T08:08:01;2.88;;;2.58;;
49590;SDS011;35496;-21.974;-46.800;2024-03-07T08:10:37;4.15;;;2.85;;
49590;SDS011;35496;-21.974;-46.800;2024-03-07T08:13:04;2.95;;;2.50;;
49590;SDS011;35496;-21.974;-46.800;2024-03-07T08:15:35;3.58;;;2.63;;
49590;SDS011;35496;-21.974;-46.800;2024-03-07T08:18:02;6.80;;;3.05;;
49590;SDS011;35496;-21.974;-46.800;2024-03-07T08:20:33;2.78;;;2.03;;
49590;SDS011;35496;-21.974;-46.800;2024-03-07T08:23:00;11.85;;;2.72;;
49590;SDS011;35496;-21.974;-46.800;2024-03-07T08:25:28;3.42;;;2.60;;
49590;SDS011;35496;-21.974;-46.800;2024-03-07T08:27:55;3.72;;;2.65;;
49590;SDS011;35496;-21.974;-46.800;2024-03-07T08:30:23;2.97;;;2.70;;
49590;SDS011;35496;-21.974;-46.800;2024-03-07T08:32:51;3.05;;;2.40;;
49590;SDS011;35496;-21.974;-46.800;2024-03-07T08:35:19;6.68;;;2.88;;
49590;SDS011;35496;-21.974;-46.800;2024-03-07T08:37:47;5.20;;;2.42;;
49590;SDS011;35496;-21.974;-46.800;2024-03-07T08:40:18;5.00;;;3.67;;
49590;SDS011;35496;-21.974;-46.800;2024-03-07T08:42:52;3.35;;;3.05;;
49590;SDS011;35496;-21.974;-46.800;2024-03-07T08:45:22;2.72;;;2.42;;
49590;SDS011;35496;-21.974;-46.800;2024-03-07T08:47:50;3.92;;;3.33;;
49590;SDS011;35496;-21.974;-46.800;2024-03-07T08:50:17;4.63;;;4.32;;
49590;SDS011;35496;-21.974;-46.800;2024-03-07T08:52:45;7.22;;;3.75;;
49590;SDS011;35496;-21.974;-46.800;2024-03-07T08:55:13;6.95;;;3.65;;
49590;SDS011;35496;-21.974;-46.800;2024-03-07T08:57:42;5.10;;;3.35;;
49590;SDS011;35496;-21.974;-46.800;2024-03-07T09:00:11;4.15;;;3.75;;
49590;SDS011;35496;-21.974;-46.800;2024-03-07T09:02:52;4.95;;;3.75;;
49590;SDS011;35496;-21.974;-46.800;2024-03-07T09:05:28;4.57;;;4.18;;
49590;SDS011;35496;-21.974;-46.800;2024-03-07T09:07:57;4.07;;;3.38;;
49590;SDS011;35496;-21.974;-46.800;2024-03-07T09:10:24;5.28;;;3.13;;
49590;SDS011;35496;-21.974;-46.800;2024-03-07T09:12:51;4.35;;;3.42;;
49590;SDS011;35496;-21.974;-46.800;2024-03-07T09:15:19;4.20;;;2.95;;
49590;SDS011;35496;-21.974;-46.800;2024-03-07T09:17:46;7.07;;;3.75;;
49590;SDS011;35496;-21.974;-46.800;2024-03-07T09:20:13;4.20;;;3.90;;
49590;SDS011;35496;-21.974;-46.800;2024-03-07T09:22:40;5.53;;;3.97;;
49590;SDS011;35496;-21.974;-46.800;2024-03-07T09:25:08;4.70;;;3.60;;
49590;SDS011;35496;-21.974;-46.800;2024-03-07T09:27:36;3.92;;;3.00;;
49590;SDS011;35496;-21.974;-46.800;2024-03-07T09:30:03;3.88;;;3.58;;
49590;SDS011;35496;-21.974;-46.800;2024-03-07T09:32:34;6.22;;;3.45;;
49590;SDS011;35496;-21.974;-46.800;2024-03-07T09:35:02;6.55;;;5.03;;
49590;SDS011;35496;-21.974;-46.800;2024-03-07T09:37:32;4.07;;;3.78;;
49590;SDS011;35496;-21.974;-46.800;2024-03-07T09:39:59;5.13;;;3.90;;
49590;SDS011;35496;-21.974;-46.800;2024-03-07T09:42:25;6.28;;;4.15;;
49590;SDS011;35496;-21.974;-46.800;2024-03-07T09:44:53;5.65;;;3.38;;
49590;SDS011;35496;-21.974;-46.800;2024-03-07T09:47:21;3.28;;;2.97;;
49590;SDS011;35496;-21.974;-46.800;2024-03-07T09:49:48;4.32;;;3.38;;
49590;SDS011;35496;-21.974;-46.800;2024-03-07T09:52:15;4.70;;;3.05;;
49590;SDS011;35496;-21.974;-46.800;2024-03-07T09:54:42;2.25;;;1.67;;
49590;SDS011;35496;-21.974;-46.800;2024-03-07T09:57:09;2.78;;;1.95;;
49590;SDS011;35496;-21.974;-46.800;2024-03-07T09:59:37;2.03;;;1.90;;
49590;SDS011;35496;-21.974;-46.800;2024-03-07T10:02:08;1.90;;;1.58;;
49590;SDS011;35496;-21.974;-46.800;2024-03-07T10:04:43;2.92;;;2.63;;
49590;SDS011;35496;-21.974;-46.800;2024-03-07T10:07:16;3.78;;;2.47;;
49590;SDS011;35496;-21.974;-46.800;2024-03-07T10:09:44;2.08;;;1.98;;
49590;SDS011;35496;-21.974;-46.800;2024-03-07T10:12:11;5.75;;;2.88;;
49590;SDS011;35496;-21.974;-46.800;2024-03-07T10:14:55;4.38;;;3.00;;
49590;SDS011;35496;-21.974;-46.800;2024-03-07T10:17:25;3.00;;;2.50;;
49590;SDS011;35496;-21.974;-46.800;2024-03-07T10:19:51;2.70;;;2.50;;
49590;SDS011;35496;-21.974;-46.800;2024-03-07T10:28:30;3.08;;;1.90;;
49590;SDS011;35496;-21.974;-46.800;2024-03-07T10:30:59;1.58;;;1.48;;
49590;SDS011;35496;-21.974;-46.800;2024-03-07T10:33:29;2.42;;;1.60;;
49590;SDS011;35496;-21.974;-46.800;2024-03-07T10:35:58;1.10;;;1.10;;
49590;SDS011;35496;-21.974;-46.800;2024-03-07T10:38:27;5.53;;;2.58;;
49590;SDS011;35496;-21.974;-46.800;2024-03-07T10:40:54;6.35;;;1.90;;
49590;SDS011;35496;-21.974;-46.800;2024-03-07T10:43:22;2.88;;;1.92;;
49590;SDS011;35496;-21.974;-46.800;2024-03-07T10:45:49;2.72;;;2.22;;
49590;SDS011;35496;-21.974;-46.800;2024-03-07T10:48:21;8.10;;;2.10;;
49590;SDS011;35496;-21.974;-46.800;2024-03-07T10:51:06;2.55;;;2.35;;
49590;SDS011;35496;-21.974;-46.800;2024-03-07T10:53:45;5.60;;;3.13;;
49590;SDS011;35496;-21.974;-46.800;2024-03-07T10:59:31;10.60;;;2.67;;
49590;SDS011;35496;-21.974;-46.800;2024-03-07T11:02:14;5.95;;;2.92;;
49590;SDS011;35496;-21.974;-46.800;2024-03-07T11:04:49;8.50;;;4.15;;
49590;SDS011;35496;-21.974;-46.800;2024-03-07T11:07:19;3.63;;;2.75;;
49590;SDS011;35496;-21.974;-46.800;2024-03-07T11:09:47;2.42;;;2.33;;
49590;SDS011;35496;-21.974;-46.800;2024-03-07T11:12:20;4.95;;;2.60;;
49590;SDS011;35496;-21.974;-46.800;2024-03-07T11:14:50;3.17;;;2.22;;
49590;SDS011;35496;-21.974;-46.800;2024-03-07T11:17:18;2.42;;;2.10;;
49590;SDS011;35496;-21.974;-46.800;2024-03-07T11:19:45;2.70;;;2.50;;
49590;SDS011;35496;-21.974;-46.800;2024-03-07T11:22:27;3.92;;;2.60;;
49590;SDS011;35496;-21.974;-46.800;2024-03-07T11:25:00;3.15;;;2.95;;
49590;SDS011;35496;-21.974;-46.800;2024-03-07T11:27:33;5.63;;;3.25;;
49590;SDS011;35496;-21.974;-46.800;2024-03-07T11:30:04;2.20;;;2.08;;
49590;SDS011;35496;-21.974;-46.800;2024-03-07T11:32:38;4.78;;;2.70;;
49590;SDS011;35496;-21.974;-46.800;2024-03-07T11:35:15;4.43;;;1.55;;
49590;SDS011;35496;-21.974;-46.800;2024-03-07T11:37:47;2.45;;;2.00;;
49590;SDS011;35496;-21.974;-46.800;2024-03-07T11:41:00;2.88;;;2.53;;
49590;SDS011;35496;-21.974;-46.800;2024-03-07T11:43:04;2.92;;;2.28;;
49590;SDS011;35496;-21.974;-46.800;2024-03-07T11:45:31;1.52;;;1.42;;
49590;SDS011;35496;-21.974;-46.800;2024-03-07T11:48:03;2.65;;;2.20;;
49590;SDS011;35496;-21.974;-46.800;2024-03-07T11:50:37;4.68;;;2.10;;
49590;SDS011;35496;-21.974;-46.800;2024-03-07T11:53:05;2.17;;;1.98;;
49590;SDS011;35496;-21.974;-46.800;2024-03-07T11:55:37;2.40;;;1.63;;
49590;SDS011;35496;-21.974;-46.800;2024-03-07T11:58:20;2.00;;;1.65;;
49590;SDS011;35496;-21.974;-46.800;2024-03-07T12:00:48;3.90;;;1.50;;
49590;SDS011;35496;-21.974;-46.800;2024-03-07T12:03:17;2.35;;;1.60;;
49590;SDS011;35496;-21.974;-46.800;2024-03-07T12:05:50;1.42;;;1.30;;
49590;SDS011;35496;-21.974;-46.800;2024-03-07T12:08:17;2.70;;;1.35;;
49590;SDS011;35496;-21.974;-46.800;2024-03-07T12:10:48;1.45;;;1.35;;
49590;SDS011;35496;-21.974;-46.800;2024-03-07T12:13:19;1.63;;;1.52;;
49590;SDS011;35496;-21.974;-46.800;2024-03-07T12:15:46;1.58;;;1.48;;
49590;SDS011;35496;-21.974;-46.800;2024-03-07T12:18:12;2.92;;;2.47;;
49590;SDS011;35496;-21.974;-46.800;2024-03-07T12:20:39;1.88;;;1.77;;
49590;SDS011;35496;-21.974;-46.800;2024-03-07T12:23:08;1.65;;;1.25;;
49590;SDS011;35496;-21.974;-46.800;2024-03-07T12:25:35;2.05;;;1.48;;
49590;SDS011;35496;-21.974;-46.800;2024-03-07T12:30:51;1.55;;;1.45;;
49590;SDS011;35496;-21.974;-46.800;2024-03-07T12:33:19;4.13;;;1.58;;
49590;SDS011;35496;-21.974;-46.800;2024-03-07T12:35:52;2.30;;;2.20;;
49590;SDS011;35496;-21.974;-46.800;2024-03-07T12:38:25;3.10;;;2.10;;
49590;SDS011;35496;-21.974;-46.800;2024-03-07T12:43:42;3.53;;;2.13;;
49590;SDS011;35496;-21.974;-46.800;2024-03-07T12:46:12;4.00;;;2.15;;
49590;SDS011;35496;-21.974;-46.800;2024-03-07T12:48:40;1.80;;;1.60;;
49590;SDS011;35496;-21.974;-46.800;2024-03-07T12:51:09;1.95;;;1.65;;
49590;SDS011;35496;-21.974;-46.800;2024-03-07T12:53:36;1.88;;;1.77;;
49590;SDS011;35496;-21.974;-46.800;2024-03-07T12:56:03;1.60;;;1.27;;
49590;SDS011;35496;-21.974;-46.800;2024-03-07T12:58:30;2.00;;;1.27;;
49590;SDS011;35496;-21.974;-46.800;2024-03-07T13:00:58;2.78;;;2.00;;
49590;SDS011;35496;-21.974;-46.800;2024-03-07T13:03:25;3.40;;;1.60;;
49590;SDS011;35496;-21.974;-46.800;2024-03-07T13:06:00;3.67;;;3.08;;
49590;SDS011;35496;-21.974;-46.800;2024-03-07T13:08:27;5.43;;;2.63;;
49590;SDS011;35496;-21.974;-46.800;2024-03-07T13:10:57;3.33;;;1.83;;
49590;SDS011;35496;-21.974;-46.800;2024-03-07T13:13:26;9.27;;;6.35;;
49590;SDS011;35496;-21.974;-46.800;2024-03-07T13:15:53;1.88;;;1.73;;
49590;SDS011;35496;-21.974;-46.800;2024-03-07T13:18:22;1.88;;;1.75;;
49590;SDS011;35496;-21.974;-46.800;2024-03-07T13:20:49;10.82;;;3.83;;
49590;SDS011;35496;-21.974;-46.800;2024-03-07T13:23:15;3.28;;;2.75;;
49590;SDS011;35496;-21.974;-46.800;2024-03-07T13:25:42;2.22;;;2.13;;
49590;SDS011;35496;-21.974;-46.800;2024-03-07T13:28:10;3.75;;;2.28;;
49590;SDS011;35496;-21.974;-46.800;2024-03-07T13:30:50;4.22;;;2.10;;
49590;SDS011;35496;-21.974;-46.800;2024-03-07T13:33:19;1.58;;;1.35;;
49590;SDS011;35496;-21.974;-46.800;2024-03-07T13:35:46;3.25;;;2.78;;
49590;SDS011;35496;-21.974;-46.800;2024-03-07T13:38:13;2.03;;;1.83;;
49590;SDS011;35496;-21.974;-46.800;2024-03-07T13:40:40;2.17;;;1.55;;
49590;SDS011;35496;-21.974;-46.800;2024-03-07T13:43:07;1.63;;;1.52;;
49590;SDS011;35496;-21.974;-46.800;2024-03-07T13:45:34;2.78;;;2.28;;
49590;SDS011;35496;-21.974;-46.800;2024-03-07T13:48:05;3.00;;;2.80;;
49590;SDS011;35496;-21.974;-46.800;2024-03-07T13:50:34;2.10;;;1.83;;
49590;SDS011;35496;-21.974;-46.800;2024-03-07T13:53:00;1.33;;;1.27;;
49590;SDS011;35496;-21.974;-46.800;2024-03-07T13:55:51;3.20;;;1.58;;
49590;SDS011;35496;-21.974;-46.800;2024-03-07T14:13:13;1.83;;;1.70;;
49590;SDS011;35496;-21.974;-46.800;2024-03-07T14:22:07;2.25;;;2.10;;
49590;SDS011;35496;-21.974;-46.800;2024-03-07T14:32:35;3.10;;;2.25;;
49590;SDS011;35496;-21.974;-46.800;2024-03-07T14:35:26;3.10;;;1.80;;
49590;SDS011;35496;-21.974;-46.800;2024-03-07T14:38:06;3.85;;;1.90;;
49590;SDS011;35496;-21.974;-46.800;2024-03-07T14:40:49;1.58;;;1.58;;
49590;SDS011;35496;-21.974;-46.800;2024-03-07T14:43:18;1.98;;;1.88;;
49590;SDS011;35496;-21.974;-46.800;2024-03-07T14:45:45;2.33;;;1.98;;
49590;SDS011;35496;-21.974;-46.800;2024-03-07T14:48:14;2.83;;;1.92;;
49590;SDS011;35496;-21.974;-46.800;2024-03-07T14:50:44;2.17;;;2.00;;
49590;SDS011;35496;-21.974;-46.800;2024-03-07T14:53:12;3.15;;;2.25;;
49590;SDS011;35496;-21.974;-46.800;2024-03-07T14:55:42;2.88;;;2.30;;
49590;SDS011;35496;-21.974;-46.800;2024-03-07T14:58:09;2.60;;;2.40;;
49590;SDS011;35496;-21.974;-46.800;2024-03-07T15:00:39;2.42;;;1.90;;
49590;SDS011;35496;-21.974;-46.800;2024-03-07T15:03:12;2.58;;;1.85;;
49590;SDS011;35496;-21.974;-46.800;2024-03-07T15:08:17;1.83;;;1.73;;
49590;SDS011;35496;-21.974;-46.800;2024-03-07T15:13:39;2.77;;;2.57;;